createdAt,value
2023-12-03T00:00:12.927Z,17.41
2023-12-03T00:02:40.948Z,17.38
2023-12-03T00:05:09.068Z,17.39
2023-12-03T00:07:36.809Z,17.38
2023-12-03T00:10:05.213Z,17.39
2023-12-03T00:12:32.910Z,17.39
2023-12-03T00:15:00.694Z,17.40
2023-12-03T00:17:29.137Z,17.41
2023-12-03T00:19:56.777Z,17.41
2023-12-03T00:22:24.450Z,17.42
2023-12-03T00:24:52.132Z,17.43
2023-12-03T00:27:19.791Z,17.44
2023-12-03T00:29:48.671Z,17.45
2023-12-03T00:32:16.332Z,17.45
2023-12-03T00:34:44.603Z,17.45
2023-12-03T00:37:13.300Z,17.47
2023-12-03T00:39:41.008Z,17.45
2023-12-03T00:42:08.994Z,17.36
2023-12-03T00:44:37.557Z,17.16
2023-12-03T00:47:05.252Z,17.44
2023-12-03T00:49:33.010Z,17.50
2023-12-03T00:52:00.806Z,17.51
2023-12-03T00:54:28.761Z,17.53
2023-12-03T00:56:57.350Z,17.51
2023-12-03T00:59:25.205Z,17.56
2023-12-03T01:01:53.609Z,17.58
2023-12-03T01:04:21.376Z,17.62
2023-12-03T01:06:49.365Z,17.66
2023-12-03T01:09:17.208Z,17.70
2023-12-03T01:11:44.840Z,17.73
2023-12-03T01:14:12.524Z,17.28
2023-12-03T01:16:40.275Z,17.71
2023-12-03T01:19:08.388Z,17.86
2023-12-03T01:21:36.136Z,17.92
2023-12-03T01:24:04.185Z,17.94
2023-12-03T01:26:31.832Z,17.98
2023-12-03T01:28:59.822Z,18.01
2023-12-03T01:31:28.073Z,18.04
2023-12-03T01:33:57.001Z,18.06
2023-12-03T01:36:25.098Z,18.08
2023-12-03T01:38:53.426Z,18.11
2023-12-03T01:41:21.277Z,18.13
2023-12-03T01:43:53.583Z,18.12
2023-12-03T01:46:24.488Z,18.15
2023-12-03T01:48:52.733Z,18.11
2023-12-03T01:51:20.654Z,18.15
2023-12-03T01:53:48.405Z,18.14
2023-12-03T01:56:18.614Z,18.12
2023-12-03T01:58:47.261Z,18.09
2023-12-03T02:01:14.955Z,18.06
2023-12-03T02:03:42.674Z,18.08
2023-12-03T02:06:11.558Z,18.08
2023-12-03T02:08:39.904Z,18.08
2023-12-03T02:11:07.933Z,18.06
2023-12-03T02:13:39.422Z,17.98
2023-12-03T02:16:07.643Z,17.93
2023-12-03T02:18:35.564Z,17.95
2023-12-03T02:21:04.136Z,17.95
2023-12-03T02:23:32.271Z,17.93
2023-12-03T02:26:00.135Z,17.95
2023-12-03T02:28:27.835Z,17.85
2023-12-03T02:30:55.656Z,17.85
2023-12-03T02:33:23.833Z,17.84
2023-12-03T02:35:51.634Z,17.82
2023-12-03T02:38:19.290Z,17.81
2023-12-03T02:40:47.186Z,17.80
2023-12-03T02:43:14.894Z,17.78
2023-12-03T02:45:42.991Z,17.77
2023-12-03T02:48:10.916Z,17.76
2023-12-03T02:50:38.725Z,17.75
2023-12-03T02:53:06.554Z,17.74
2023-12-03T02:55:34.118Z,17.73
2023-12-03T02:58:02.094Z,17.72
2023-12-03T03:00:29.838Z,17.71
2023-12-03T03:02:57.544Z,17.69
2023-12-03T03:05:25.206Z,17.68
2023-12-03T03:07:52.870Z,17.65
2023-12-03T03:10:21.072Z,17.60
2023-12-03T03:12:48.840Z,17.57
2023-12-03T03:15:16.696Z,17.53
2023-12-03T03:17:44.480Z,17.51
2023-12-03T03:20:12.352Z,17.47
2023-12-03T03:22:40.271Z,17.46
2023-12-03T03:25:09.477Z,17.44
2023-12-03T03:27:37.157Z,17.39
2023-12-03T03:30:07.910Z,17.37
2023-12-03T03:32:35.688Z,17.35
2023-12-03T03:35:07.136Z,17.33
2023-12-03T03:37:34.742Z,17.32
2023-12-03T03:40:02.532Z,17.31
2023-12-03T03:42:30.829Z,17.29
2023-12-03T03:44:58.850Z,17.27
2023-12-03T03:47:26.626Z,17.27
2023-12-03T03:49:54.388Z,17.27
2023-12-03T03:52:22.052Z,17.26
2023-12-03T03:54:49.746Z,17.25
2023-12-03T03:57:17.494Z,17.23
2023-12-03T03:59:45.944Z,17.23
2023-12-03T04:02:13.705Z,17.22
2023-12-03T04:04:41.509Z,17.20
2023-12-03T04:07:10.675Z,17.19
2023-12-03T04:09:38.539Z,17.17
2023-12-03T04:12:06.710Z,17.16
2023-12-03T04:14:34.475Z,17.15
2023-12-03T04:17:02.354Z,17.13
2023-12-03T04:19:30.091Z,17.11
2023-12-03T04:21:57.878Z,17.09
2023-12-03T04:24:25.747Z,17.08
2023-12-03T04:26:53.391Z,17.07
2023-12-03T04:29:21.054Z,17.05
2023-12-03T04:31:49.128Z,17.04
2023-12-03T04:34:16.909Z,17.03
2023-12-03T04:36:47.768Z,17.02
2023-12-03T04:39:15.736Z,17.02
2023-12-03T04:41:43.455Z,17.01
2023-12-03T04:44:11.115Z,17.00
2023-12-03T04:46:45.030Z,16.98
2023-12-03T04:49:13.266Z,16.96
2023-12-03T04:51:41.415Z,16.94
2023-12-03T04:54:09.139Z,16.94
2023-12-03T04:56:36.693Z,16.93
2023-12-03T04:59:04.397Z,16.91
2023-12-03T05:01:32.375Z,16.90
2023-12-03T05:04:00.163Z,16.89
2023-12-03T05:06:28.447Z,16.89
2023-12-03T05:08:56.581Z,16.89
2023-12-03T05:11:24.216Z,16.89
2023-12-03T05:13:52.161Z,16.88
2023-12-03T05:16:20.143Z,16.86
2023-12-03T05:18:48.149Z,16.86
2023-12-03T05:21:16.141Z,16.85
2023-12-03T05:23:43.938Z,16.84
2023-12-03T05:26:12.212Z,16.83
2023-12-03T05:28:39.896Z,16.81
2023-12-03T05:31:08.149Z,16.80
2023-12-03T05:33:36.027Z,16.79
2023-12-03T05:36:03.959Z,16.78
2023-12-03T05:38:32.059Z,16.78
2023-12-03T05:40:59.727Z,16.78
2023-12-03T05:43:27.499Z,16.77
2023-12-03T05:45:55.205Z,16.77
2023-12-03T05:48:23.084Z,16.77
2023-12-03T05:50:52.418Z,16.77
2023-12-03T05:53:20.072Z,16.77
2023-12-03T05:55:47.731Z,16.78
2023-12-03T05:58:15.399Z,16.78
2023-12-03T06:00:43.096Z,16.79
2023-12-03T06:03:11.034Z,16.80
2023-12-03T06:05:38.851Z,16.82
2023-12-03T06:08:06.775Z,16.84
2023-12-03T06:10:34.455Z,16.87
2023-12-03T06:13:02.077Z,16.90
2023-12-03T06:15:30.281Z,16.92
2023-12-03T06:17:58.077Z,16.94
2023-12-03T06:20:25.886Z,16.95
2023-12-03T06:22:53.640Z,16.97
2023-12-03T06:25:21.165Z,17.00
2023-12-03T06:27:49.245Z,17.02
2023-12-03T06:30:18.940Z,17.04
2023-12-03T06:32:46.725Z,17.05
2023-12-03T06:35:16.069Z,17.06
2023-12-03T06:37:43.814Z,17.08
2023-12-03T06:40:12.558Z,17.09
2023-12-03T06:42:40.371Z,17.10
2023-12-03T06:45:09.046Z,17.12
2023-12-03T06:47:36.791Z,17.14
2023-12-03T06:50:25.263Z,17.17
2023-12-03T06:52:53.227Z,17.20
2023-12-03T06:55:21.003Z,17.22
2023-12-03T06:57:49.222Z,17.24
2023-12-03T07:00:17.713Z,17.26
2023-12-03T07:02:45.508Z,17.28
2023-12-03T07:05:13.405Z,17.30
2023-12-03T07:07:41.159Z,17.33
2023-12-03T07:10:09.559Z,17.36
2023-12-03T07:12:37.353Z,17.37
2023-12-03T07:15:06.075Z,17.38
2023-12-03T07:17:33.885Z,17.38
2023-12-03T07:20:01.723Z,17.40
2023-12-03T07:22:29.379Z,17.44
2023-12-03T07:24:57.163Z,17.46
2023-12-03T07:27:25.010Z,17.49
2023-12-03T07:29:57.164Z,17.53
2023-12-03T07:32:24.882Z,17.58
2023-12-03T07:34:52.699Z,17.62
2023-12-03T07:37:20.478Z,17.65
2023-12-03T07:39:48.369Z,17.69
2023-12-03T07:42:16.438Z,17.72
2023-12-03T07:44:44.353Z,17.74
2023-12-03T07:47:12.014Z,17.78
2023-12-03T07:49:39.716Z,17.82
2023-12-03T07:52:07.610Z,17.86
2023-12-03T07:54:35.523Z,17.88
2023-12-03T07:57:04.001Z,17.92
2023-12-03T07:59:31.781Z,17.94
2023-12-03T08:02:00.484Z,17.96
2023-12-03T08:04:29.075Z,17.99
2023-12-03T08:06:57.140Z,18.03
2023-12-03T08:09:25.637Z,18.06
2023-12-03T08:11:54.635Z,18.09
2023-12-03T08:14:22.556Z,18.12
2023-12-03T08:16:50.404Z,18.14
2023-12-03T08:19:18.338Z,18.17
2023-12-03T08:21:46.275Z,18.21
2023-12-03T08:24:14.467Z,18.25
2023-12-03T08:26:42.171Z,18.29
2023-12-03T08:29:10.154Z,18.34
2023-12-03T08:31:38.006Z,18.39
2023-12-03T08:34:05.774Z,18.45
2023-12-03T08:36:34.029Z,18.50
2023-12-03T08:39:04.378Z,18.57
2023-12-03T08:41:33.000Z,18.62
2023-12-03T08:44:00.836Z,18.68
2023-12-03T08:46:28.497Z,18.74
2023-12-03T08:48:56.251Z,18.79
2023-12-03T08:51:24.053Z,18.84
2023-12-03T08:53:52.182Z,18.89
2023-12-03T08:56:20.483Z,18.93
2023-12-03T08:58:49.629Z,18.97
2023-12-03T09:01:18.158Z,19.00
2023-12-03T09:03:47.462Z,19.02
2023-12-03T09:06:15.625Z,19.04
2023-12-03T09:08:43.913Z,19.07
2023-12-03T09:11:12.259Z,19.10
2023-12-03T09:13:40.129Z,19.12
2023-12-03T09:16:08.736Z,19.15
2023-12-03T09:18:40.050Z,19.17
2023-12-03T09:21:15.245Z,19.20
2023-12-03T09:23:43.065Z,19.22
2023-12-03T09:26:10.826Z,19.25
2023-12-03T09:28:38.696Z,19.30
2023-12-03T09:31:07.058Z,19.39
2023-12-03T09:33:34.904Z,19.46
2023-12-03T09:36:03.018Z,19.49
2023-12-03T09:38:30.879Z,19.36
2023-12-03T09:40:58.739Z,19.08
2023-12-03T09:43:28.671Z,18.81
2023-12-03T09:45:57.473Z,18.57
2023-12-03T09:48:26.386Z,18.33
2023-12-03T09:50:54.416Z,18.17
2023-12-03T09:53:22.377Z,18.03
2023-12-03T09:55:50.442Z,17.86
2023-12-03T09:58:18.204Z,17.69
2023-12-03T10:00:46.120Z,17.57
2023-12-03T10:03:13.938Z,17.48
2023-12-03T10:05:41.982Z,17.40
2023-12-03T10:08:10.073Z,17.28
2023-12-03T10:10:38.481Z,17.17
2023-12-03T10:13:06.662Z,17.05
2023-12-03T10:15:34.472Z,16.93
2023-12-03T10:18:02.198Z,16.81
2023-12-03T10:20:30.496Z,16.75
2023-12-03T10:23:00.334Z,16.73
2023-12-03T10:25:28.954Z,16.70
2023-12-03T10:27:57.871Z,16.64
2023-12-03T10:33:49.629Z,16.55
2023-12-03T10:36:17.694Z,16.46
2023-12-03T10:38:45.814Z,16.38
2023-12-03T10:41:17.435Z,16.34
2023-12-03T10:43:45.023Z,16.30
2023-12-03T10:46:13.549Z,16.25
2023-12-03T10:48:42.358Z,16.19
2023-12-03T10:51:11.890Z,16.17
2023-12-03T10:53:39.862Z,16.20
2023-12-03T10:56:08.951Z,16.28
2023-12-03T10:58:40.826Z,16.22
2023-12-03T11:01:20.968Z,16.19
2023-12-03T11:04:15.325Z,16.12
2023-12-03T11:06:43.265Z,16.04
2023-12-03T11:09:11.405Z,15.99
2023-12-03T11:11:42.336Z,15.91
2023-12-03T11:17:42.164Z,15.79
2023-12-03T11:20:20.276Z,15.78
2023-12-03T11:22:48.221Z,15.79
2023-12-03T11:25:16.634Z,15.77
2023-12-03T11:27:44.657Z,15.75
2023-12-03T11:30:12.878Z,15.71
2023-12-03T11:32:48.024Z,15.67
2023-12-03T11:35:18.137Z,15.68
2023-12-03T11:37:46.401Z,15.68
2023-12-03T11:40:15.520Z,15.69
2023-12-03T11:42:50.555Z,15.61
2023-12-03T11:45:27.309Z,15.50
2023-12-03T11:48:08.301Z,15.30
2023-12-03T11:50:43.925Z,15.17
2023-12-03T11:53:15.082Z,15.10
2023-12-03T11:55:49.222Z,14.99
2023-12-03T11:58:17.488Z,14.87
2023-12-03T12:00:48.715Z,14.83
2023-12-03T12:03:16.602Z,14.79
2023-12-03T12:05:48.114Z,14.75
2023-12-03T12:08:20.693Z,14.75
2023-12-03T12:10:51.292Z,14.75
2023-12-03T12:13:20.968Z,14.74
2023-12-03T12:15:48.735Z,14.74
2023-12-03T12:18:21.331Z,14.70
2023-12-03T12:20:49.491Z,14.67
2023-12-03T12:23:17.349Z,14.64
2023-12-03T12:25:45.291Z,14.60
2023-12-03T12:28:13.046Z,14.62
2023-12-03T12:30:41.553Z,14.66
2023-12-03T12:33:10.010Z,14.62
2023-12-03T12:39:02.230Z,14.62
2023-12-03T12:41:40.043Z,14.60
2023-12-03T12:47:37.781Z,14.65
2023-12-03T12:50:06.778Z,14.68
2023-12-03T12:52:36.552Z,14.73
2023-12-03T12:55:07.573Z,14.72
2023-12-03T12:57:39.300Z,14.65
2023-12-03T13:00:09.935Z,14.58
2023-12-03T13:02:38.165Z,14.48
2023-12-03T13:05:07.065Z,14.45
2023-12-03T13:07:34.797Z,14.44
2023-12-03T13:10:03.418Z,14.42
2023-12-03T13:12:31.728Z,14.38
2023-12-03T13:14:59.539Z,14.33
2023-12-03T13:17:28.618Z,14.30
2023-12-03T13:19:56.561Z,14.25
2023-12-03T13:22:24.591Z,14.19
2023-12-03T13:24:52.763Z,14.12
2023-12-03T13:27:20.523Z,14.07
2023-12-03T13:29:49.552Z,14.01
2023-12-03T13:32:18.078Z,13.95
2023-12-03T13:34:45.955Z,13.95
2023-12-03T13:40:37.704Z,13.94
2023-12-03T13:46:30.513Z,13.77
2023-12-03T13:48:58.395Z,13.63
2023-12-03T13:51:28.376Z,13.45
2023-12-03T13:53:56.637Z,13.56
2023-12-03T13:56:25.102Z,13.59
2023-12-03T13:58:53.383Z,13.60
2023-12-03T14:01:21.549Z,13.61
2023-12-03T14:03:49.688Z,13.60
2023-12-03T14:06:17.472Z,13.58
2023-12-03T14:08:45.165Z,13.57
2023-12-03T14:11:13.421Z,13.55
2023-12-03T14:13:41.384Z,13.52
2023-12-03T14:16:09.972Z,13.44
2023-12-03T14:18:37.674Z,13.38
2023-12-03T14:21:06.142Z,13.34
2023-12-03T14:23:33.984Z,13.29
2023-12-03T14:26:02.047Z,13.24
2023-12-03T14:28:30.221Z,13.19
2023-12-03T14:30:58.836Z,13.13
2023-12-03T14:33:27.201Z,13.07
2023-12-03T14:35:55.358Z,13.07
2023-12-03T14:38:23.119Z,13.06
2023-12-03T14:40:51.018Z,13.05
2023-12-03T14:43:18.850Z,12.98
2023-12-03T14:45:46.663Z,12.93
2023-12-03T14:48:14.699Z,12.90
2023-12-03T14:50:42.666Z,12.87
2023-12-03T14:53:10.535Z,12.84
2023-12-03T14:55:38.284Z,12.80
2023-12-03T14:58:06.261Z,12.76
2023-12-03T15:00:34.283Z,12.72
2023-12-03T15:03:02.129Z,12.68
2023-12-03T15:05:31.212Z,12.67
2023-12-03T15:08:00.208Z,12.64
2023-12-03T15:10:27.948Z,12.62
2023-12-03T15:12:55.905Z,12.60
2023-12-03T15:15:23.727Z,12.61
2023-12-03T15:17:51.761Z,12.62
2023-12-03T15:20:19.838Z,12.64
2023-12-03T15:22:47.722Z,12.65
2023-12-03T15:25:17.208Z,12.67
2023-12-03T15:27:46.096Z,12.66
2023-12-03T15:30:22.013Z,12.64
2023-12-03T15:32:50.173Z,12.63
2023-12-03T15:35:18.065Z,12.62
2023-12-03T15:37:45.848Z,12.59
2023-12-03T15:40:13.798Z,12.61
2023-12-03T15:42:42.104Z,12.61
2023-12-03T15:45:10.760Z,12.63
2023-12-03T15:47:38.685Z,12.62
2023-12-03T15:50:07.778Z,12.63
2023-12-03T15:52:35.498Z,12.64
2023-12-03T15:55:12.442Z,12.63
2023-12-03T16:01:15.992Z,12.58
2023-12-03T16:03:43.761Z,12.54
2023-12-03T16:06:12.077Z,12.56
2023-12-03T16:08:40.316Z,12.56
2023-12-03T16:11:08.381Z,12.55
2023-12-03T16:13:36.559Z,12.56
2023-12-03T16:16:06.884Z,12.56
2023-12-03T16:18:35.158Z,12.55
2023-12-03T16:21:03.539Z,12.52
2023-12-03T16:23:31.293Z,12.49
2023-12-03T16:25:59.256Z,12.48
2023-12-03T16:28:27.223Z,12.47
2023-12-03T16:30:55.423Z,12.47
2023-12-03T16:33:23.223Z,12.46
2023-12-03T16:35:51.073Z,12.44
2023-12-03T16:38:19.101Z,12.44
2023-12-03T16:40:47.188Z,12.42
2023-12-03T16:43:15.545Z,12.38
2023-12-03T16:45:43.342Z,12.31
2023-12-03T16:48:11.160Z,12.24
2023-12-03T16:50:39.144Z,12.21
2023-12-03T16:53:06.907Z,12.19
2023-12-03T16:55:34.770Z,12.17
2023-12-03T16:58:02.726Z,12.16
2023-12-03T17:00:31.546Z,12.16
2023-12-03T17:02:59.712Z,12.16
2023-12-03T17:05:27.472Z,11.97
2023-12-03T17:07:55.555Z,11.81
2023-12-03T17:10:23.957Z,11.74
2023-12-03T17:12:58.315Z,11.67
2023-12-03T17:15:32.234Z,11.62
2023-12-03T17:18:01.005Z,11.59
2023-12-03T17:20:29.407Z,11.58
2023-12-03T17:22:58.612Z,11.58
2023-12-03T17:25:26.597Z,11.56
2023-12-03T17:31:12.349Z,11.55
2023-12-03T17:33:40.475Z,11.52
2023-12-03T17:36:08.798Z,11.49
2023-12-03T17:38:36.505Z,11.46
2023-12-03T17:41:05.277Z,11.42
2023-12-03T17:43:34.004Z,11.39
2023-12-03T17:46:01.763Z,11.36
2023-12-03T17:48:31.396Z,11.34
2023-12-03T17:50:59.208Z,11.34
2023-12-03T17:53:26.974Z,11.35
2023-12-03T17:55:55.582Z,11.33
2023-12-03T18:01:48.216Z,11.34
2023-12-03T18:04:16.828Z,11.28
2023-12-03T18:06:45.026Z,11.26
2023-12-03T18:09:12.839Z,11.22
2023-12-03T18:11:43.073Z,11.18
2023-12-03T18:14:12.559Z,11.15
2023-12-03T18:16:40.392Z,11.13
2023-12-03T18:19:08.609Z,11.12
2023-12-03T18:21:36.905Z,11.11
2023-12-03T18:24:04.963Z,11.08
2023-12-03T18:26:32.949Z,11.04
2023-12-03T18:29:01.293Z,11.00
2023-12-03T18:31:29.570Z,10.93
2023-12-03T18:33:58.519Z,10.87
2023-12-03T18:36:26.677Z,10.83
2023-12-03T18:38:55.042Z,10.79
2023-12-03T18:41:24.208Z,10.75
2023-12-03T18:43:52.929Z,10.71
2023-12-03T18:46:21.681Z,10.64
2023-12-03T18:48:49.624Z,10.62
2023-12-03T18:51:17.734Z,10.60
2023-12-03T18:53:45.920Z,10.53
2023-12-03T18:56:13.864Z,10.50
2023-12-03T18:58:42.464Z,10.48
2023-12-03T19:01:11.198Z,10.45
2023-12-03T19:03:38.989Z,10.44
2023-12-03T19:06:07.326Z,10.40
2023-12-03T19:08:36.344Z,10.35
2023-12-03T19:11:11.919Z,10.32
2023-12-03T19:13:39.982Z,10.30
2023-12-03T19:16:11.377Z,10.30
2023-12-03T19:18:42.335Z,10.28
2023-12-03T19:21:10.465Z,10.20
2023-12-03T19:23:38.111Z,10.14
2023-12-03T19:26:06.091Z,10.06
2023-12-03T19:28:33.946Z,10.04
2023-12-03T19:31:06.345Z,10.02
2023-12-03T19:33:34.298Z,10.02
2023-12-03T19:36:02.353Z,10.03
2023-12-03T19:38:30.193Z,10.04
2023-12-03T19:41:02.520Z,10.00
2023-12-03T19:43:31.104Z,9.96
2023-12-03T19:45:58.982Z,9.89
2023-12-03T19:48:28.087Z,9.81
2023-12-03T19:50:56.202Z,9.75
2023-12-03T19:53:23.973Z,9.70
2023-12-03T19:55:52.455Z,9.65
2023-12-03T19:58:21.645Z,9.58
2023-12-03T20:00:50.157Z,9.54
2023-12-03T20:03:17.997Z,9.54
2023-12-03T20:05:45.703Z,9.55
2023-12-03T20:08:13.934Z,9.56
2023-12-03T20:10:42.573Z,9.57
2023-12-03T20:13:10.274Z,9.46
2023-12-03T20:15:41.526Z,9.30
2023-12-03T20:18:10.446Z,9.27
2023-12-03T20:20:38.947Z,9.24
2023-12-03T20:23:06.799Z,9.20
2023-12-03T20:25:34.633Z,9.18
2023-12-03T20:28:02.531Z,9.15
2023-12-03T20:30:30.472Z,9.11
2023-12-03T20:32:58.805Z,9.07
2023-12-03T20:35:26.712Z,9.08
2023-12-03T20:37:55.391Z,9.02
2023-12-03T20:40:23.162Z,8.98
2023-12-03T20:42:50.879Z,8.96
2023-12-03T20:45:19.068Z,8.96
2023-12-03T20:47:46.903Z,8.93
2023-12-03T20:50:14.773Z,8.91
2023-12-03T20:52:42.584Z,8.90
2023-12-03T20:55:10.412Z,8.89
2023-12-03T20:57:38.746Z,8.90
2023-12-03T21:00:07.585Z,8.90
2023-12-03T21:02:35.473Z,8.91
2023-12-03T21:05:03.265Z,8.92
2023-12-03T21:10:55.806Z,8.95
2023-12-03T21:13:23.593Z,8.91
2023-12-03T21:15:51.566Z,8.89
2023-12-03T21:18:19.351Z,8.85
2023-12-03T21:20:47.407Z,8.83
2023-12-03T21:23:15.342Z,8.83
2023-12-03T21:25:43.130Z,8.83
2023-12-03T21:28:11.193Z,8.84
2023-12-03T21:30:38.913Z,8.83
2023-12-03T21:33:06.858Z,8.83
2023-12-03T21:35:35.084Z,8.83
2023-12-03T21:38:08.098Z,8.83
2023-12-03T21:40:38.004Z,8.81
2023-12-03T21:43:05.984Z,8.80
2023-12-03T21:45:33.860Z,8.77
2023-12-03T21:48:02.442Z,8.80
2023-12-03T21:50:30.679Z,8.79
2023-12-03T21:53:00.097Z,8.79
2023-12-03T21:55:27.951Z,8.75
2023-12-03T21:57:55.808Z,8.70
2023-12-03T22:00:23.674Z,8.62
2023-12-03T22:02:51.907Z,8.58
2023-12-03T22:05:19.544Z,8.57
2023-12-03T22:07:47.170Z,8.56
2023-12-03T22:10:15.077Z,8.53
2023-12-03T22:12:42.943Z,8.51
2023-12-03T22:15:11.764Z,8.52
2023-12-03T22:17:39.505Z,8.54
2023-12-03T22:20:08.209Z,8.52
2023-12-03T22:22:36.036Z,8.49
2023-12-03T22:25:03.919Z,8.49
2023-12-03T22:27:32.401Z,8.49
2023-12-03T22:30:06.032Z,8.47
2023-12-03T22:32:39.567Z,8.42
2023-12-03T22:35:07.979Z,8.37
2023-12-03T22:37:36.009Z,8.34
2023-12-03T22:40:04.666Z,8.28
2023-12-03T22:42:32.490Z,8.29
2023-12-03T22:45:00.419Z,8.30
2023-12-03T22:47:28.327Z,8.30
2023-12-03T22:53:14.103Z,8.30
2023-12-03T22:55:42.941Z,8.25
2023-12-03T22:58:11.386Z,8.20
2023-12-03T23:00:39.134Z,8.16
2023-12-03T23:03:06.928Z,8.12
2023-12-03T23:05:38.833Z,8.10
2023-12-03T23:08:07.653Z,8.08
2023-12-03T23:10:35.950Z,8.08
2023-12-03T23:13:03.876Z,8.08
2023-12-03T23:15:31.951Z,8.11
2023-12-03T23:18:00.301Z,8.24
2023-12-03T23:20:28.108Z,8.33
2023-12-03T23:22:56.081Z,8.38
2023-12-03T23:25:23.831Z,8.42
2023-12-03T23:27:51.644Z,8.41
2023-12-03T23:30:19.851Z,8.40
2023-12-03T23:32:48.386Z,8.41
2023-12-03T23:35:16.315Z,8.42
2023-12-03T23:37:43.980Z,8.40
2023-12-03T23:40:12.341Z,8.39
2023-12-03T23:42:40.354Z,8.37
2023-12-03T23:45:09.012Z,8.34
2023-12-03T23:47:36.823Z,8.42
2023-12-03T23:50:05.440Z,8.57
2023-12-03T23:52:33.047Z,8.61
2023-12-03T23:55:01.558Z,8.64
2023-12-03T23:57:29.281Z,8.65
2023-12-03T23:59:57.846Z,8.65
